Time;durP1;ratioP1;P1;durP2;ratioP2;P2;SDS_P1;SDS_P2;PMS_P1;PMS_P2;Temp;Humidity;BMP_temperature;BMP_pressure;BME280_temperature;BME280_humidity;BME280_pressure;Samples;Min_cycle;Max_cycle;Signal;HPM_P1;HPM_P2
2022/01/17 00:02:39;;;;;;;29.80;16.10;;;;;;;2.96;80.38;99821.71;130538;1268;109009;-76
2022/01/17 00:05:44;;;;;;;28.90;16.20;;;;;;;2.92;80.55;99807.90;130550;1268;108557;-78
2022/01/17 00:08:50;;;;;;;25.30;15.00;;;;;;;2.93;80.55;99810.70;130481;1268;108694;-78
2022/01/17 00:11:56;;;;;;;24.00;14.40;;;;;;;2.91;80.83;99805.56;130432;1268;108599;-77
2022/01/17 00:15:02;;;;;;;27.60;15.30;;;;;;;2.94;80.95;99787.74;130544;1268;108490;-78
2022/01/17 00:18:26;;;;;;;26.10;15.50;;;;;;;2.97;80.74;99784.73;130609;1268;108886;-78
2022/01/17 00:21:32;;;;;;;26.50;15.70;;;;;;;2.99;80.88;99764.91;130389;1268;108655;-76
2022/01/17 00:24:37;;;;;;;26.40;15.80;;;;;;;2.99;80.76;99760.91;130415;1268;108753;-78
2022/01/17 00:27:43;;;;;;;31.50;16.40;;;;;;;2.94;80.83;99760.33;130404;1268;108794;-80
2022/01/17 00:30:48;;;;;;;26.90;14.80;;;;;;;2.95;80.85;99752.35;130512;1268;108882;-79
2022/01/17 00:33:53;;;;;;;28.40;16.10;;;;;;;2.99;81.18;99750.68;130470;1266;109025;-79
2022/01/17 00:36:59;;;;;;;30.10;16.00;;;;;;;3.00;81.16;99742.66;130587;1268;107800;-79
2022/01/17 00:40:06;;;;;;;29.20;17.10;;;;;;;3.03;80.97;99735.65;130449;1268;108512;-81
2022/01/17 00:43:12;;;;;;;30.20;17.30;;;;;;;3.01;81.10;99727.35;130367;1268;209131;-79
2022/01/17 00:46:18;;;;;;;32.60;17.50;;;;;;;2.97;81.54;99718.87;130469;1268;106702;-79
2022/01/17 00:49:23;;;;;;;27.10;15.40;;;;;;;2.95;81.55;99721.78;130414;1266;108864;-79
2022/01/17 00:52:29;;;;;;;29.40;16.40;;;;;;;3.00;81.25;99728.12;130392;1268;108621;-78
2022/01/17 00:55:37;;;;;;;31.80;17.20;;;;;;;3.05;81.33;99722.80;130373;1268;108870;-80
2022/01/17 00:58:42;;;;;;;33.50;17.50;;;;;;;3.07;81.40;99720.58;130352;1268;108877;-79
2022/01/17 01:01:48;;;;;;;32.30;18.10;;;;;;;3.05;81.30;99721.23;130276;1268;108951;-80
2022/01/17 01:04:53;;;;;;;31.60;17.70;;;;;;;3.04;81.42;99725.52;130375;1268;107799;-80
2022/01/17 01:07:58;;;;;;;30.20;16.50;;;;;;;3.07;81.32;99721.63;130413;1267;109665;-81
2022/01/17 01:11:04;;;;;;;33.20;17.90;;;;;;;3.10;81.34;99720.85;130461;1268;109032;-79
2022/01/17 01:14:10;;;;;;;32.70;18.50;;;;;;;3.18;81.47;99716.75;130413;1267;108835;-80
2022/01/17 01:17:31;;;;;;;33.80;19.10;;;;;;;3.22;81.33;99709.56;130436;1268;107712;-81
2022/01/17 01:20:59;;;;;;;33.80;18.60;;;;;;;3.22;81.43;99699.02;130651;1268;108800;-78
2022/01/17 01:27:52;;;;;;;30.90;17.80;;;;;;;3.24;81.45;99678.63;130861;1268;108848;-78
2022/01/17 01:30:59;;;;;;;30.10;18.00;;;;;;;3.31;81.37;99670.73;130524;1268;108975;-78
2022/01/17 01:34:06;;;;;;;34.10;20.00;;;;;;;3.30;81.50;99665.48;130808;1268;107806;-80
2022/01/17 01:37:12;;;;;;;34.20;19.00;;;;;;;3.28;81.53;99658.95;130958;1266;108963;-78
2022/01/17 01:40:19;;;;;;;37.20;19.50;;;;;;;3.28;81.49;99650.73;130822;1266;108929;-78
2022/01/17 01:43:25;;;;;;;31.40;18.80;;;;;;;3.28;81.63;99641.92;130479;1268;108758;-78
2022/01/17 01:46:30;;;;;;;33.50;18.40;;;;;;;3.30;81.64;99632.61;130277;1268;108741;-79
2022/01/17 01:49:36;;;;;;;32.50;18.40;;;;;;;3.33;82.12;99620.48;130422;1268;108779;-78
2022/01/17 01:52:43;;;;;;;33.60;19.00;;;;;;;3.31;82.03;99617.80;130547;1268;108831;-78
2022/01/17 01:55:48;;;;;;;31.10;17.90;;;;;;;3.32;82.20;99621.02;130496;1268;108875;-77
2022/01/17 01:58:54;;;;;;;31.50;18.30;;;;;;;3.31;81.98;99602.84;130546;1268;108935;-77
2022/01/17 02:01:59;;;;;;;33.30;18.70;;;;;;;3.31;82.15;99609.34;130412;1268;108346;-77
2022/01/17 02:05:05;;;;;;;27.60;15.70;;;;;;;3.31;82.19;99600.00;130383;1268;109001;-76
2022/01/17 02:08:12;;;;;;;31.50;17.50;;;;;;;3.38;82.00;99599.00;130411;1268;107390;-76
2022/01/17 02:11:17;;;;;;;30.20;17.30;;;;;;;3.42;81.98;99598.66;130406;1268;108159;-78
2022/01/17 02:14:23;;;;;;;28.50;16.80;;;;;;;3.43;81.95;99590.45;130388;1268;108741;-78
2022/01/17 02:17:30;;;;;;;29.00;16.50;;;;;;;3.42;81.95;99584.55;131024;1268;108921;-80
2022/01/17 02:20:42;;;;;;;28.90;16.40;;;;;;;3.42;81.84;99578.97;131008;1266;108832;-81
2022/01/17 02:23:51;;;;;;;28.70;16.80;;;;;;;3.43;82.03;99580.77;130633;1268;108605;-79
2022/01/17 02:26:57;;;;;;;27.50;15.10;;;;;;;3.44;82.32;99577.68;130419;1267;109779;-80
2022/01/17 02:30:02;;;;;;;25.50;16.10;;;;;;;3.45;82.23;99573.95;130414;1268;108886;-80
2022/01/17 02:33:08;;;;;;;26.30;16.30;;;;;;;3.50;82.14;99565.09;130616;1267;106816;-78
2022/01/17 02:36:13;;;;;;;27.00;16.10;;;;;;;3.52;82.20;99562.30;130422;1268;108695;-80
2022/01/17 02:39:19;;;;;;;28.00;16.90;;;;;;;3.50;82.24;99555.06;130551;1268;106976;-78
2022/01/17 02:42:26;;;;;;;24.90;15.30;;;;;;;3.50;82.14;99542.42;130418;1268;107401;-77
2022/01/17 02:45:35;;;;;;;27.30;15.50;;;;;;;3.53;82.23;99531.93;130524;1268;105724;-80
2022/01/17 02:48:41;;;;;;;24.30;15.20;;;;;;;3.57;82.21;99524.61;130403;1267;108515;-78
2022/01/17 02:51:48;;;;;;;27.00;16.30;;;;;;;3.63;82.08;99514.11;130415;1267;108724;-77
2022/01/17 02:54:54;;;;;;;25.40;15.60;;;;;;;3.65;81.93;99495.13;130400;1268;108763;-77
2022/01/17 02:58:00;;;;;;;26.00;14.50;;;;;;;3.66;81.90;99487.33;130399;1266;108678;-77
2022/01/17 03:01:09;;;;;;;25.50;15.00;;;;;;;3.65;81.99;99484.80;130369;1267;108571;-78
2022/01/17 03:04:15;;;;;;;26.10;14.70;;;;;;;3.66;81.67;99475.83;130423;1268;107689;-79
2022/01/17 03:07:20;;;;;;;24.50;14.60;;;;;;;3.71;81.81;99478.75;130541;1268;108940;-81
2022/01/17 03:10:36;;;;;;;24.80;15.80;;;;;;;3.78;81.62;99477.69;130389;1268;107456;-80
2022/01/17 03:13:42;;;;;;;27.80;16.30;;;;;;;3.80;81.40;99472.02;130404;1268;108637;-82
2022/01/17 03:16:49;;;;;;;28.80;15.80;;;;;;;3.80;81.39;99463.13;130355;1267;108518;-80
2022/01/17 03:19:54;;;;;;;26.50;15.00;;;;;;;3.80;81.40;99452.54;130380;1268;109060;-79
2022/01/17 03:23:00;;;;;;;24.60;14.00;;;;;;;3.83;81.35;99440.11;130400;1268;108791;-77
2022/01/17 03:26:06;;;;;;;25.20;14.90;;;;;;;3.90;81.32;99438.48;130427;1268;108822;-77
2022/01/17 03:29:11;;;;;;;24.20;14.90;;;;;;;3.92;81.18;99442.66;130415;1267;108890;-79
2022/01/17 03:32:17;;;;;;;25.40;15.10;;;;;;;3.91;80.95;99444.69;130375;1268;108772;-77
2022/01/17 03:35:22;;;;;;;21.90;13.60;;;;;;;3.88;80.93;99433.15;130499;1268;109004;-77
2022/01/17 03:38:31;;;;;;;22.30;13.90;;;;;;;3.87;81.00;99433.30;130404;1268;107260;-78
2022/01/17 03:41:36;;;;;;;23.30;13.80;;;;;;;3.86;80.95;99422.96;130422;1266;108817;-77
2022/01/17 03:44:42;;;;;;;22.50;13.70;;;;;;;3.88;81.02;99417.36;130486;1268;108896;-77
2022/01/17 03:47:48;;;;;;;23.50;14.20;;;;;;;3.91;80.72;99410.02;130573;1266;108736;-81
2022/01/17 03:50:55;;;;;;;25.70;14.70;;;;;;;3.94;80.59;99413.38;130520;1266;108825;-75
2022/01/17 03:54:01;;;;;;;26.50;14.50;;;;;;;3.93;80.84;99408.64;130368;1268;108772;-76
2022/01/17 03:57:07;;;;;;;21.10;12.30;;;;;;;3.94;80.76;99400.31;130342;1268;108751;-76
2022/01/17 04:00:16;;;;;;;20.70;12.80;;;;;;;3.99;80.85;99401.13;130487;1267;108798;-77
2022/01/17 04:03:22;;;;;;;21.50;12.70;;;;;;;4.05;80.55;99387.58;130384;1267;108633;-78
2022/01/17 04:06:27;;;;;;;20.60;12.80;;;;;;;4.08;80.58;99391.00;130419;1267;106846;-77
2022/01/17 04:09:33;;;;;;;21.80;13.70;;;;;;;4.09;80.19;99369.25;130480;1268;108872;-83
2022/01/17 04:12:38;;;;;;;22.50;14.60;;;;;;;4.10;80.13;99353.00;130428;1268;107679;-79
2022/01/17 04:15:45;;;;;;;18.30;12.20;;;;;;;4.08;80.12;99333.61;130355;1268;108857;-78
2022/01/17 04:18:50;;;;;;;16.20;11.10;;;;;;;4.06;80.11;99330.67;130381;1268;105725;-78
2022/01/17 04:21:55;;;;;;;18.90;11.70;;;;;;;4.06;80.14;99319.08;130386;1268;108739;-77
2022/01/17 04:25:01;;;;;;;19.70;12.00;;;;;;;4.10;79.91;99321.88;130333;1266;108879;-78
2022/01/17 04:28:10;;;;;;;19.50;12.20;;;;;;;4.12;79.96;99312.69;130407;1268;108083;-80
2022/01/17 04:31:16;;;;;;;18.00;12.00;;;;;;;4.14;80.07;99302.52;130479;1268;107131;-78
2022/01/17 04:34:21;;;;;;;21.50;12.90;;;;;;;4.13;79.79;99284.68;130373;1268;108711;-78
2022/01/17 04:37:26;;;;;;;18.70;11.40;;;;;;;4.09;79.78;99280.41;130331;1268;107709;-78
2022/01/17 04:40:35;;;;;;;19.70;11.40;;;;;;;4.10;79.95;99273.27;130228;1268;108843;-78
2022/01/17 04:43:55;;;;;;;18.70;11.40;;;;;;;4.13;79.72;99275.84;130425;1266;108618;-79
2022/01/17 04:47:00;;;;;;;17.40;11.70;;;;;;;4.17;79.93;99270.77;130430;1268;108636;-80
2022/01/17 04:50:10;;;;;;;16.90;11.80;;;;;;;4.18;80.01;99268.77;130374;1268;108579;-80
2022/01/17 04:53:19;;;;;;;19.20;11.80;;;;;;;4.14;79.94;99270.80;130422;1267;108629;-80
2022/01/17 04:56:24;;;;;;;19.30;12.00;;;;;;;4.10;79.88;99255.67;130478;1267;108863;-79
2022/01/17 04:59:30;;;;;;;16.90;10.40;;;;;;;4.08;79.97;99251.41;130390;1268;109085;-77
2022/01/17 05:02:35;;;;;;;18.00;11.40;;;;;;;4.09;79.95;99248.70;130377;1266;108726;-78
2022/01/17 05:05:41;;;;;;;16.90;11.10;;;;;;;4.14;80.00;99248.98;130381;1266;108894;-78
2022/01/17 05:08:46;;;;;;;18.40;11.30;;;;;;;4.18;79.88;99231.90;130428;1267;108739;-78
2022/01/17 05:11:52;;;;;;;17.30;10.90;;;;;;;4.20;79.52;99236.32;130366;1268;108848;-78
2022/01/17 05:14:58;;;;;;;16.40;9.60;;;;;;;4.16;79.37;99244.43;130391;1268;107745;-75
2022/01/17 05:18:25;;;;;;;13.50;8.30;;;;;;;4.11;79.44;99234.52;130543;1266;109746;-77
2022/01/17 05:21:30;;;;;;;15.40;9.00;;;;;;;4.11;79.49;99233.41;130522;1268;108912;-77
2022/01/17 05:24:35;;;;;;;14.30;8.60;;;;;;;4.16;79.65;99215.05;130457;1266;107905;-78
2022/01/17 05:27:41;;;;;;;14.60;9.80;;;;;;;4.19;79.32;99216.14;130409;1268;108561;-79
2022/01/17 05:30:47;;;;;;;12.80;7.80;;;;;;;4.19;79.16;99200.53;130398;1268;107864;-78
2022/01/17 05:33:52;;;;;;;14.70;10.00;;;;;;;4.17;79.42;99173.06;130467;1267;108981;-79
2022/01/17 05:36:57;;;;;;;15.70;9.20;;;;;;;4.18;79.38;99175.42;130514;1268;108908;-79
2022/01/17 05:40:04;;;;;;;14.40;8.80;;;;;;;4.21;79.49;99159.63;130406;1268;109040;-78
2022/01/17 05:43:10;;;;;;;14.50;8.80;;;;;;;4.25;78.98;99159.66;130463;1267;109107;-79
2022/01/17 05:46:15;;;;;;;32.50;18.70;;;;;;;4.27;79.06;99153.78;130426;1266;108860;-78
2022/01/17 05:49:21;;;;;;;63.80;33.50;;;;;;;4.28;79.14;99146.91;130384;1268;108694;-79
2022/01/17 05:52:26;;;;;;;36.70;17.60;;;;;;;4.25;79.03;99140.44;130466;1266;107424;-78
2022/01/17 05:55:32;;;;;;;200.30;70.80;;;;;;;4.23;79.26;99146.63;130369;1265;107367;-79
2022/01/17 05:58:37;;;;;;;408.50;150.70;;;;;;;4.26;79.23;99131.54;130337;1268;107610;-79
2022/01/17 06:01:44;;;;;;;394.80;172.90;;;;;;;4.29;79.03;99120.73;130376;1267;108974;-79
2022/01/17 06:04:49;;;;;;;61.90;38.10;;;;;;;4.28;79.15;99111.33;130420;1268;108660;-80
2022/01/17 06:07:55;;;;;;;24.30;16.90;;;;;;;4.22;79.08;99101.27;130331;1267;108821;-81
2022/01/17 06:11:01;;;;;;;19.40;12.30;;;;;;;4.22;79.21;99093.05;130437;1268;108884;-79
2022/01/17 06:14:09;;;;;;;14.40;8.50;;;;;;;4.24;79.03;99093.35;130408;1268;108633;-80
2022/01/17 06:17:14;;;;;;;14.90;9.50;;;;;;;4.26;79.07;99081.55;130414;1267;106664;-78
2022/01/17 06:20:20;;;;;;;22.30;13.40;;;;;;;4.29;78.92;99075.97;130366;1266;108687;-79
2022/01/17 06:23:26;;;;;;;57.50;30.20;;;;;;;4.30;78.94;99062.51;130436;1267;107483;-77
2022/01/17 06:26:32;;;;;;;61.70;31.40;;;;;;;4.31;78.91;99060.33;130427;1267;107627;-76
2022/01/17 06:29:37;;;;;;;73.80;43.20;;;;;;;4.33;78.68;99044.61;130486;1268;108937;-77
2022/01/17 06:32:43;;;;;;;70.20;33.80;;;;;;;4.38;78.79;99031.37;130427;1267;108873;-77
2022/01/17 06:35:49;;;;;;;43.00;20.60;;;;;;;4.38;78.57;99030.88;130341;1267;108589;-77
2022/01/17 06:38:54;;;;;;;88.20;47.00;;;;;;;4.36;78.22;99022.02;130429;1266;108949;-78
2022/01/17 06:41:59;;;;;;;41.00;24.20;;;;;;;4.33;78.54;98991.49;130456;1268;108834;-77
2022/01/17 06:45:05;;;;;;;18.10;10.80;;;;;;;4.31;78.60;99000.16;130467;1268;108667;-81
2022/01/17 06:48:11;;;;;;;8.80;5.40;;;;;;;4.34;78.62;98975.00;130328;1267;108849;-78
2022/01/17 06:51:17;;;;;;;10.20;6.50;;;;;;;4.40;78.39;98961.24;130332;1268;106638;-79
2022/01/17 06:54:22;;;;;;;13.40;7.70;;;;;;;4.43;78.45;98952.53;130392;1267;108800;-79
2022/01/17 06:57:28;;;;;;;77.30;35.80;;;;;;;4.41;78.92;98951.48;130299;1267;108842;-80
2022/01/17 07:00:34;;;;;;;122.50;48.20;;;;;;;4.38;79.09;98942.95;130324;1267;108815;-76
2022/01/17 07:03:40;;;;;;;55.10;28.10;;;;;;;4.31;79.32;98940.39;130308;1267;108634;-77
2022/01/17 07:06:45;;;;;;;12.90;7.10;;;;;;;4.31;79.30;98942.84;130311;1267;108966;-76
2022/01/17 07:09:50;;;;;;;10.60;5.90;;;;;;;4.34;79.34;98950.02;130283;1267;108908;-77
2022/01/17 07:12:56;;;;;;;45.90;25.90;;;;;;;4.36;79.18;98953.86;130327;1267;108975;-78
2022/01/17 07:16:01;;;;;;;45.10;24.40;;;;;;;4.37;79.24;98980.64;130345;1267;109703;-77
2022/01/17 07:19:07;;;;;;;51.10;26.80;;;;;;;4.33;79.33;98991.49;130360;1267;108710;-78
2022/01/17 07:22:13;;;;;;;59.20;33.00;;;;;;;4.34;79.42;99001.60;130409;1268;108712;-77
2022/01/17 07:25:18;;;;;;;41.20;23.80;;;;;;;4.38;79.49;98978.54;130102;1267;109642;-78
2022/01/17 07:28:24;;;;;;;36.20;19.20;;;;;;;4.42;79.36;98944.16;130427;1267;108697;-77
2022/01/17 07:31:29;;;;;;;19.80;10.20;;;;;;;4.44;79.58;98923.00;130414;1267;108865;-77
2022/01/17 07:34:34;;;;;;;37.20;21.30;;;;;;;4.42;79.75;98888.20;130408;1267;108770;-78
2022/01/17 07:37:40;;;;;;;28.70;17.80;;;;;;;4.38;80.10;98880.33;130397;1267;108865;-78
2022/01/17 07:40:45;;;;;;;57.40;20.80;;;;;;;4.32;80.22;98877.13;130369;1268;108827;-78
2022/01/17 07:43:52;;;;;;;33.40;19.70;;;;;;;4.34;80.35;98871.17;130404;1267;108116;-78
2022/01/17 07:47:00;;;;;;;23.80;14.30;;;;;;;4.30;80.40;98863.98;130359;1267;108959;-78
2022/01/17 07:50:09;;;;;;;18.60;11.10;;;;;;;4.24;80.49;98859.41;130373;1267;108501;-76
2022/01/17 07:53:16;;;;;;;22.50;12.30;;;;;;;4.19;80.71;98840.58;130451;1267;108630;-78
2022/01/17 07:56:22;;;;;;;35.30;19.30;;;;;;;4.17;80.72;98828.80;130386;1267;108787;-76
2022/01/17 07:59:28;;;;;;;34.80;23.00;;;;;;;4.20;80.80;98808.10;130405;1268;108853;-77
2022/01/17 08:02:33;;;;;;;37.70;20.60;;;;;;;4.21;80.62;98813.77;130398;1268;108861;-75
2022/01/17 08:05:39;;;;;;;12.90;7.80;;;;;;;4.19;80.84;98801.70;130310;1266;108945;-78
2022/01/17 08:08:44;;;;;;;15.10;9.70;;;;;;;4.15;81.24;98776.74;130528;1268;106962;-77
2022/01/17 08:11:51;;;;;;;15.80;11.10;;;;;;;4.15;81.47;98773.38;130392;1267;108837;-78
2022/01/17 08:15:01;;;;;;;12.10;6.50;;;;;;;4.17;81.35;98748.70;130389;1268;108266;-78
2022/01/17 08:18:07;;;;;;;18.40;10.40;;;;;;;4.16;81.40;98744.55;130351;1267;106690;-78
2022/01/17 08:21:12;;;;;;;64.10;34.70;;;;;;;4.18;81.23;98755.85;130322;1267;108715;-79
2022/01/17 08:24:17;;;;;;;41.70;22.10;;;;;;;4.21;81.23;98771.13;130265;1268;108681;-79
2022/01/17 08:27:23;;;;;;;28.00;15.10;;;;;;;4.28;80.91;98778.41;130319;1267;108751;-80
2022/01/17 08:30:29;;;;;;;38.60;21.80;;;;;;;4.36;80.90;98756.56;130367;1267;108690;-79
2022/01/17 08:33:34;;;;;;;11.20;6.00;;;;;;;4.37;80.90;98757.13;130622;1267;107582;-77
2022/01/17 08:36:40;;;;;;;11.80;7.10;;;;;;;4.38;80.55;98751.59;130573;1267;108665;-77
2022/01/17 08:39:45;;;;;;;19.90;9.90;;;;;;;4.38;80.49;98737.73;130605;1267;108842;-79
2022/01/17 08:42:51;;;;;;;13.10;5.30;;;;;;;4.44;80.45;98735.86;130390;1268;109081;-76
2022/01/17 08:45:57;;;;;;;9.00;6.20;;;;;;;4.51;80.29;98710.20;130381;1268;107091;-77
2022/01/17 08:49:02;;;;;;;20.00;10.40;;;;;;;4.51;80.29;98701.16;130377;1267;107267;-80
2022/01/17 08:52:09;;;;;;;60.90;30.00;;;;;;;4.52;80.24;98706.02;130441;1267;108714;-77
2022/01/17 08:55:17;;;;;;;28.50;15.70;;;;;;;4.53;80.48;98708.35;130388;1268;108959;-76
2022/01/17 08:58:23;;;;;;;8.00;4.40;;;;;;;4.53;80.61;98705.54;130352;1267;108019;-75
2022/01/17 09:01:28;;;;;;;6.50;3.50;;;;;;;4.54;80.55;98669.52;130322;1267;108549;-77
2022/01/17 09:04:36;;;;;;;4.70;3.10;;;;;;;4.50;80.73;98694.42;130344;1266;108642;-77
2022/01/17 09:07:47;;;;;;;7.20;3.80;;;;;;;4.50;80.87;98707.79;130432;1267;108569;-78
2022/01/17 09:11:04;;;;;;;27.60;17.70;;;;;;;4.48;80.90;98710.30;130379;1268;107810;-78
2022/01/17 09:14:10;;;;;;;111.50;55.10;;;;;;;4.49;80.91;98700.65;130403;1268;108864;-78
2022/01/17 09:17:15;;;;;;;26.10;17.10;;;;;;;4.46;80.79;98684.05;130398;1268;108704;-78
2022/01/17 09:20:21;;;;;;;7.40;4.30;;;;;;;4.48;80.85;98696.55;130306;1267;108901;-77
2022/01/17 09:23:26;;;;;;;13.00;7.20;;;;;;;4.49;81.04;98701.49;130372;1267;108834;-76
2022/01/17 16:03:52;;;;;;;12.40;4.90;;;;;;;0.79;85.08;99967.73;125869;1309;648912;-77
2022/01/17 16:06:57;;;;;;;22.30;8.90;;;;;;;0.96;81.79;99972.40;129304;1280;136915;-77
2022/01/17 16:10:03;;;;;;;16.50;5.30;;;;;;;1.01;84.57;99975.95;129706;1278;108958;-79
2022/01/17 16:13:09;;;;;;;11.20;4.60;;;;;;;0.99;85.48;99979.02;129342;1280;108422;-80
2022/01/17 16:16:14;;;;;;;12.80;4.70;;;;;;;0.94;84.73;99989.02;129443;1278;108838;-83
2022/01/17 16:19:19;;;;;;;12.50;4.70;;;;;;;0.89;85.25;99997.21;129400;1279;108825;-81
2022/01/17 16:22:25;;;;;;;8.70;3.20;;;;;;;0.84;84.05;100011.70;130472;1267;108981;-81
2022/01/17 16:25:31;;;;;;;8.00;3.60;;;;;;;0.84;83.94;100017.34;130469;1267;108900;-83
2022/01/17 16:28:42;;;;;;;13.00;4.50;;;;;;;0.85;86.59;100023.20;130733;1267;108815;-83
2022/01/17 16:31:50;;;;;;;6.50;3.60;;;;;;;0.83;84.25;100029.98;130455;1267;108737;-82
2022/01/17 16:34:58;;;;;;;9.40;3.80;;;;;;;0.82;83.90;100042.82;130961;1267;108117;-82
2022/01/17 16:38:03;;;;;;;15.80;6.30;;;;;;;0.78;86.86;100040.76;130706;1267;108154;-83
2022/01/17 16:41:10;;;;;;;9.90;4.50;;;;;;;0.71;85.17;100047.54;130747;1267;108936;-81
2022/01/17 16:44:18;;;;;;;17.00;8.40;;;;;;;0.64;85.75;100056.19;130574;1267;108957;-82
2022/01/17 16:47:23;;;;;;;7.00;2.80;;;;;;;0.55;86.39;100064.61;131120;1267;108734;-84
2022/01/17 16:50:29;;;;;;;10.50;5.00;;;;;;;0.49;84.29;100074.13;130564;1267;107643;-83
2022/01/17 16:53:36;;;;;;;7.00;2.60;;;;;;;0.44;82.55;100088.22;130403;1267;108853;-79
2022/01/17 16:56:41;;;;;;;9.60;2.30;;;;;;;0.45;84.15;100100.59;130390;1267;108610;-79
2022/01/17 16:59:47;;;;;;;6.80;2.80;;;;;;;0.43;82.34;100114.02;130297;1267;109013;-79
2022/01/17 17:02:52;;;;;;;9.00;2.70;;;;;;;0.44;80.16;100122.02;130351;1267;108704;-79
2022/01/17 17:05:58;;;;;;;11.60;3.60;;;;;;;0.43;80.52;100138.34;130280;1267;107064;-78
2022/01/17 17:09:04;;;;;;;11.30;3.10;;;;;;;0.40;80.43;100150.77;130343;1266;108720;-77
2022/01/17 17:12:10;;;;;;;6.60;2.90;;;;;;;0.37;77.15;100155.81;130328;1267;108715;-76
2022/01/17 17:15:15;;;;;;;7.20;2.60;;;;;;;0.35;79.01;100161.15;130463;1267;108906;-77
2022/01/17 17:18:21;;;;;;;6.80;3.10;;;;;;;0.36;77.55;100175.27;130371;1267;108904;-80
2022/01/17 17:21:27;;;;;;;7.30;2.50;;;;;;;0.36;81.07;100179.27;130354;1267;107145;-80
2022/01/17 17:24:33;;;;;;;6.20;2.90;;;;;;;0.36;79.77;100185.60;130355;1267;108778;-79
2022/01/17 17:27:40;;;;;;;8.40;2.70;;;;;;;0.38;79.77;100192.69;130358;1267;107838;-80
2022/01/17 17:30:47;;;;;;;7.20;2.50;;;;;;;0.39;81.38;100203.30;130365;1268;108709;-77
2022/01/17 17:33:52;;;;;;;6.60;2.40;;;;;;;0.41;81.71;100209.69;130438;1267;108697;-82
2022/01/17 17:36:59;;;;;;;7.60;2.70;;;;;;;0.41;80.38;100211.41;130495;1267;108758;-77
2022/01/17 17:40:05;;;;;;;7.50;2.50;;;;;;;0.43;80.52;100218.15;130420;1267;108854;-80
2022/01/17 17:43:11;;;;;;;7.40;2.80;;;;;;;0.42;76.49;100229.90;130387;1267;105588;-76
2022/01/17 17:46:16;;;;;;;8.30;3.70;;;;;;;0.46;77.61;100230.05;130384;1267;108911;-77
2022/01/17 17:49:22;;;;;;;10.70;3.70;;;;;;;0.47;79.23;100236.31;130340;1267;106725;-78
2022/01/17 17:52:28;;;;;;;9.50;3.80;;;;;;;0.44;79.95;100237.84;130365;1267;107904;-78
2022/01/17 17:55:36;;;;;;;7.10;2.80;;;;;;;0.44;78.08;100244.52;130389;1267;108847;-76
2022/01/17 17:58:41;;;;;;;7.90;3.00;;;;;;;0.47;79.14;100248.36;130420;1267;106704;-75
2022/01/17 18:01:48;;;;;;;8.50;2.90;;;;;;;0.50;80.22;100250.29;130385;1267;108657;-80
2022/01/17 18:04:53;;;;;;;11.30;3.90;;;;;;;0.51;78.58;100263.53;130500;1268;108744;-77
2022/01/17 18:07:59;;;;;;;9.10;3.10;;;;;;;0.50;78.13;100273.36;130405;1267;108895;-81
2022/01/17 18:11:04;;;;;;;9.60;2.70;;;;;;;0.52;77.48;100273.97;130379;1267;108632;-80
2022/01/17 18:14:10;;;;;;;8.40;3.10;;;;;;;0.53;78.66;100290.31;131291;1267;109039;-80
2022/01/17 18:17:16;;;;;;;8.00;3.30;;;;;;;0.54;78.79;100303.09;131213;1260;107428;-78
2022/01/17 18:20:21;;;;;;;8.00;2.70;;;;;;;0.54;76.30;100314.08;130603;1270;109078;-83
2022/01/17 18:23:26;;;;;;;11.40;4.20;;;;;;;0.56;77.35;100307.16;130671;1270;108704;-81
2022/01/17 18:26:32;;;;;;;9.20;3.20;;;;;;;0.57;77.56;100318.30;130540;1270;109491;-79
2022/01/17 18:29:37;;;;;;;21.50;7.50;;;;;;;0.57;77.41;100320.75;130910;1270;107787;-80
2022/01/17 18:32:43;;;;;;;12.40;5.30;;;;;;;0.56;76.77;100333.76;130612;1269;108722;-79
2022/01/17 18:35:52;;;;;;;12.10;5.90;;;;;;;0.56;77.06;100345.85;130366;1270;108676;-78
2022/01/17 18:38:59;;;;;;;14.60;5.60;;;;;;;0.53;74.30;100355.48;130423;1270;109798;-78
2022/01/17 18:42:07;;;;;;;10.10;3.80;;;;;;;0.54;78.10;100367.30;130561;1270;108706;-78
2022/01/17 18:45:14;;;;;;;14.40;5.60;;;;;;;0.53;76.90;100366.64;130254;1270;108728;-75
2022/01/17 18:48:19;;;;;;;14.80;5.00;;;;;;;0.53;77.54;100370.70;130348;1270;110040;-76
2022/01/17 18:51:28;;;;;;;12.60;4.10;;;;;;;0.52;76.40;100382.82;130422;1270;109607;-78
2022/01/17 18:54:34;;;;;;;9.60;3.40;;;;;;;0.51;76.42;100391.97;130468;1269;107695;-76
2022/01/17 18:57:41;;;;;;;15.30;5.20;;;;;;;0.51;74.84;100405.47;130583;1270;108567;-75
2022/01/17 19:00:46;;;;;;;15.10;5.40;;;;;;;0.51;75.19;100406.14;130608;1270;108857;-77
2022/01/17 19:03:52;;;;;;;13.90;5.20;;;;;;;0.50;74.07;100420.04;130862;1268;108788;-76
2022/01/17 19:06:58;;;;;;;14.30;5.50;;;;;;;0.50;73.78;100429.99;130505;1270;107424;-79
2022/01/17 19:10:04;;;;;;;12.00;4.60;;;;;;;0.51;73.87;100438.34;130553;1270;108649;-78
2022/01/17 19:13:10;;;;;;;8.60;2.90;;;;;;;0.50;73.48;100444.23;130340;1270;108896;-77
2022/01/17 19:16:15;;;;;;;10.60;4.20;;;;;;;0.48;73.05;100459.52;130585;1269;108836;-78
2022/01/17 19:19:23;;;;;;;7.50;2.90;;;;;;;0.46;71.39;100470.66;130631;1269;108625;-78
2022/01/17 19:22:29;;;;;;;10.30;3.50;;;;;;;0.46;71.37;100476.95;130732;1270;108785;-82
2022/01/17 19:25:35;;;;;;;12.70;4.10;;;;;;;0.46;72.70;100474.88;130250;1270;107680;-77
2022/01/17 19:28:40;;;;;;;10.00;3.80;;;;;;;0.45;73.71;100486.63;130426;1270;108834;-82
2022/01/17 19:31:47;;;;;;;10.90;3.90;;;;;;;0.46;72.67;100495.88;130452;1269;109286;-80
2022/01/17 19:34:55;;;;;;;9.00;3.30;;;;;;;0.49;73.87;100502.34;130724;1269;109225;-80
2022/01/17 19:38:02;;;;;;;10.00;4.00;;;;;;;0.52;72.80;100508.66;130442;1270;108736;-78
2022/01/17 19:41:07;;;;;;;11.10;4.40;;;;;;;0.54;73.50;100516.42;130629;1268;108708;-77
2022/01/17 19:44:13;;;;;;;35.00;12.70;;;;;;;0.55;73.65;100523.20;130367;1270;108633;-77
2022/01/17 19:47:19;;;;;;;13.30;5.40;;;;;;;0.54;74.25;100539.17;130301;1269;108958;-80
2022/01/17 19:50:25;;;;;;;13.60;4.90;;;;;;;0.51;73.90;100543.90;130301;1270;108728;-79
2022/01/17 19:53:33;;;;;;;13.80;4.90;;;;;;;0.47;74.38;100547.61;130310;1270;108699;-79
2022/01/17 19:56:38;;;;;;;21.80;7.10;;;;;;;0.45;74.61;100553.17;130216;1270;108735;-79
2022/01/17 19:59:44;;;;;;;13.70;4.80;;;;;;;0.41;73.63;100554.75;130297;1270;108842;-79
2022/01/17 20:02:49;;;;;;;11.40;4.40;;;;;;;0.40;73.94;100553.77;130213;1269;108817;-79
2022/01/17 20:05:54;;;;;;;10.90;3.50;;;;;;;0.42;74.07;100558.95;130248;1270;108707;-78
2022/01/17 20:09:00;;;;;;;11.20;4.30;;;;;;;0.43;73.13;100554.85;130357;1270;106773;-78
2022/01/17 20:12:06;;;;;;;10.90;4.70;;;;;;;0.49;73.08;100564.16;130282;1270;109048;-78
2022/01/17 20:15:12;;;;;;;10.10;3.50;;;;;;;0.52;73.18;100586.73;130303;1270;107571;-78
2022/01/17 20:18:18;;;;;;;13.70;4.70;;;;;;;0.52;72.59;100595.32;130364;1270;108734;-77
2022/01/17 20:21:25;;;;;;;12.70;4.00;;;;;;;0.49;72.02;100600.17;130234;1270;108875;-77
2022/01/17 20:24:30;;;;;;;17.70;6.20;;;;;;;0.48;72.55;100606.54;130360;1270;107571;-78
2022/01/17 20:27:36;;;;;;;18.80;6.50;;;;;;;0.47;72.62;100613.26;130313;1270;108686;-78
2022/01/17 20:30:42;;;;;;;21.30;5.90;;;;;;;0.45;72.95;100620.38;130350;1270;108623;-76
2022/01/17 20:33:47;;;;;;;15.70;5.40;;;;;;;0.43;72.19;100628.71;130234;1269;108804;-76
2022/01/17 20:36:53;;;;;;;13.90;5.30;;;;;;;0.42;72.50;100633.50;130389;1269;108701;-76
2022/01/17 20:39:58;;;;;;;10.80;4.40;;;;;;;0.41;71.90;100639.32;130438;1269;108869;-77
2022/01/17 20:43:04;;;;;;;13.40;4.50;;;;;;;0.42;72.79;100646.98;130274;1268;107321;-78
2022/01/17 20:46:10;;;;;;;9.10;3.30;;;;;;;0.41;72.32;100651.20;130198;1270;108829;-73
2022/01/17 20:49:15;;;;;;;9.20;3.20;;;;;;;0.40;72.49;100654.05;130210;1270;108851;-75
2022/01/17 20:52:20;;;;;;;12.50;4.60;;;;;;;0.41;72.51;100669.05;130270;1268;108670;-76